Time;durP1;ratioP1;P1;durP2;ratioP2;P2;SDS_P1;SDS_P2;PMS_P1;PMS_P2;Temp;Humidity;BMP_temperature;BMP_pressure;BME280_temperature;BME280_humidity;BME280_pressure;Samples;Min_cycle;Max_cycle;Signal;HPM_P1;HPM_P2
2021/05/28 00:01:49;;;;;;;2.42;0.73;;;9.30;92.80;;;;;;5091851;28;20063;-74
2021/05/28 00:04:16;;;;;;;2.17;0.70;;;9.20;92.70;;;;;;5092154;28;20036;-74
2021/05/28 00:06:43;;;;;;;1.75;0.55;;;9.20;92.70;;;;;;5109925;28;20479;-74
2021/05/28 00:09:10;;;;;;;2.10;0.65;;;9.20;92.80;;;;;;5111857;28;20102;-74
2021/05/28 00:11:39;;;;;;;3.15;0.68;;;9.20;92.80;;;;;;5086227;28;20039;-74
2021/05/28 00:14:06;;;;;;;3.30;0.98;;;9.20;92.80;;;;;;5104368;28;20478;-75
2021/05/28 00:16:34;;;;;;;1.73;0.95;;;9.20;92.80;;;;;;5091441;28;20040;-76
2021/05/28 00:19:01;;;;;;;1.90;0.88;;;9.20;92.90;;;;;;5099016;28;20048;-74
2021/05/28 00:21:28;;;;;;;2.33;0.80;;;9.20;92.90;;;;;;5108738;28;20032;-74
2021/05/28 00:23:55;;;;;;;1.92;0.73;;;9.10;92.90;;;;;;5065369;28;20036;-74
2021/05/28 00:26:22;;;;;;;1.90;0.75;;;9.10;92.90;;;;;;5076816;28;20067;-72
2021/05/28 00:28:49;;;;;;;2.97;0.77;;;9.10;92.90;;;;;;5073870;28;20046;-73
2021/05/28 00:31:20;;;;;;;3.85;1.65;;;9.10;92.90;;;;;;5091081;28;20040;-73
2021/05/28 00:33:47;;;;;;;4.80;1.38;;;9.10;92.90;;;;;;5107797;28;20052;-75
2021/05/28 00:36:15;;;;;;;3.65;1.00;;;9.00;92.90;;;;;;5074423;28;20031;-73
2021/05/28 00:38:42;;;;;;;1.70;0.80;;;9.00;92.90;;;;;;5093442;28;20140;-72
2021/05/28 00:41:10;;;;;;;2.53;0.90;;;9.00;93.00;;;;;;5080657;28;20044;-72
2021/05/28 00:43:37;;;;;;;2.13;0.75;;;9.00;93.00;;;;;;5094442;28;20032;-73
2021/05/28 00:46:04;;;;;;;2.15;1.20;;;9.00;93.10;;;;;;5099272;28;20482;-73
2021/05/28 00:48:31;;;;;;;2.28;0.98;;;9.00;93.10;;;;;;5088163;28;20044;-73
2021/05/28 00:50:58;;;;;;;3.35;1.05;;;9.00;93.30;;;;;;5072867;28;20117;-73
2021/05/28 00:53:27;;;;;;;2.55;0.90;;;9.00;93.00;;;;;;5074973;28;20058;-73
2021/05/28 00:55:56;;;;;;;2.10;0.60;;;9.00;93.10;;;;;;5095425;28;20093;-72
2021/05/28 00:58:25;;;;;;;1.45;0.60;;;9.00;93.10;;;;;;5074677;28;20048;-74
2021/05/28 01:00:52;;;;;;;6.25;1.25;;;8.90;93.10;;;;;;5095236;28;20039;-74
2021/05/28 01:03:19;;;;;;;3.20;0.80;;;8.90;93.10;;;;;;5075282;28;20036;-75
2021/05/28 01:05:46;;;;;;;1.55;0.60;;;8.90;93.10;;;;;;5055989;28;20039;-72
2021/05/28 01:08:13;;;;;;;1.63;0.65;;;8.90;93.10;;;;;;5094303;28;20043;-72
2021/05/28 01:10:41;;;;;;;1.65;0.73;;;8.90;93.20;;;;;;5110610;27;20123;-72
2021/05/28 01:13:09;;;;;;;2.22;1.00;;;8.90;93.50;;;;;;5108336;27;20039;-72
2021/05/28 01:15:38;;;;;;;1.88;0.77;;;8.90;93.20;;;;;;5112113;28;20123;-73
2021/05/28 01:18:05;;;;;;;1.58;0.77;;;8.90;93.20;;;;;;5074215;28;20064;-73
2021/05/28 01:20:33;;;;;;;3.58;0.80;;;8.90;93.20;;;;;;5111715;27;20047;-72
2021/05/28 01:23:02;;;;;;;2.15;0.90;;;8.90;93.20;;;;;;5109763;28;20036;-73
2021/05/28 01:25:30;;;;;;;3.58;1.20;;;8.90;93.30;;;;;;5115724;27;20048;-72
2021/05/28 01:27:57;;;;;;;5.18;1.00;;;8.90;93.30;;;;;;5112660;27;20028;-72
2021/05/28 01:30:26;;;;;;;2.95;1.10;;;8.90;93.20;;;;;;5090520;28;20105;-73
2021/05/28 01:32:53;;;;;;;5.60;1.23;;;9.00;93.20;;;;;;5110028;28;20127;-73
2021/05/28 01:35:20;;;;;;;3.65;1.00;;;9.10;93.20;;;;;;5093930;28;20051;-72
2021/05/28 01:37:47;;;;;;;2.67;0.93;;;9.10;93.10;;;;;;5111604;28;20071;-73
2021/05/28 01:40:15;;;;;;;4.68;1.25;;;9.20;93.10;;;;;;5087905;28;20047;-72
2021/05/28 01:42:42;;;;;;;3.83;1.30;;;9.30;93.10;;;;;;5092869;28;20031;-71
2021/05/28 01:45:10;;;;;;;3.33;1.27;;;9.30;93.10;;;;;;5091541;28;20035;-72
2021/05/28 01:47:37;;;;;;;3.25;1.52;;;9.40;93.00;;;;;;5090480;27;20040;-72
2021/05/28 01:50:06;;;;;;;3.63;1.30;;;9.40;92.90;;;;;;5086597;27;20035;-72
2021/05/28 01:52:33;;;;;;;2.53;1.30;;;9.40;92.90;;;;;;5092288;28;20052;-72
2021/05/28 01:55:00;;;;;;;4.25;2.38;;;9.40;92.90;;;;;;5108898;28;20051;-72
2021/05/28 01:57:27;;;;;;;3.75;1.63;;;9.40;92.90;;;;;;5073693;28;20047;-72
2021/05/28 01:59:54;;;;;;;3.40;1.60;;;9.40;92.90;;;;;;5076874;28;20032;-72
2021/05/28 02:02:21;;;;;;;4.88;1.77;;;9.40;92.90;;;;;;5109586;28;20117;-72
2021/05/28 02:04:48;;;;;;;3.85;1.30;;;9.40;93.20;;;;;;5094720;27;20109;-72
2021/05/28 02:07:15;;;;;;;4.35;2.20;;;9.40;92.90;;;;;;5109235;27;20518;-72
2021/05/28 02:09:42;;;;;;;4.82;1.83;;;9.40;92.90;;;;;;5091575;28;20040;-72
2021/05/28 02:12:09;;;;;;;3.90;1.48;;;9.40;92.90;;;;;;5060496;28;21589;-72
2021/05/28 02:14:36;;;;;;;4.00;1.90;;;9.40;92.80;;;;;;5074198;28;20048;-72
2021/05/28 02:17:03;;;;;;;3.95;1.80;;;9.40;92.80;;;;;;5090668;28;20051;-72
2021/05/28 02:19:30;;;;;;;4.50;2.05;;;9.40;92.80;;;;;;5108619;27;20039;-72
2021/05/28 02:21:57;;;;;;;3.80;1.70;;;9.40;92.80;;;;;;5087388;28;20104;-74
2021/05/28 02:24:24;;;;;;;4.18;1.63;;;9.40;92.90;;;;;;5105283;28;20055;-74
2021/05/28 02:26:55;;;;;;;4.32;1.73;;;9.40;92.90;;;;;;5111076;27;20458;-74
2021/05/28 02:29:23;;;;;;;4.40;1.67;;;9.40;92.90;;;;;;5109672;28;20039;-74
2021/05/28 02:31:50;;;;;;;3.10;1.45;;;9.30;92.90;;;;;;5107334;27;20537;-74
2021/05/28 02:34:17;;;;;;;4.15;1.83;;;9.30;92.90;;;;;;5088369;28;20040;-74
2021/05/28 02:36:44;;;;;;;4.60;2.08;;;9.40;92.90;;;;;;5092996;28;20044;-74
2021/05/28 02:39:11;;;;;;;4.22;2.13;;;9.40;92.90;;;;;;5114329;27;20047;-74
2021/05/28 02:41:38;;;;;;;5.72;2.20;;;9.30;92.80;;;;;;5105578;27;20036;-74
2021/05/28 02:44:06;;;;;;;3.55;2.13;;;9.30;92.80;;;;;;5099639;28;20040;-73
2021/05/28 02:46:36;;;;;;;5.78;2.13;;;9.30;92.90;;;;;;5101640;28;20418;-74
2021/05/28 02:49:03;;;;;;;4.25;1.90;;;9.30;92.90;;;;;;5105836;28;20039;-74
2021/05/28 02:51:30;;;;;;;4.88;2.55;;;9.30;92.80;;;;;;5075469;28;20043;-74
2021/05/28 02:53:57;;;;;;;5.25;2.50;;;9.30;92.80;;;;;;5111532;28;20100;-74
2021/05/28 02:56:24;;;;;;;4.03;1.92;;;9.20;92.90;;;;;;5111635;28;20092;-74
2021/05/28 02:58:51;;;;;;;4.88;1.88;;;9.20;92.90;;;;;;5092642;28;20036;-75
2021/05/28 03:01:18;;;;;;;3.05;1.38;;;9.20;92.90;;;;;;5092923;28;20399;-74
2021/05/28 03:03:45;;;;;;;3.95;1.42;;;9.20;92.90;;;;;;5090656;28;20059;-74
2021/05/28 03:06:12;;;;;;;4.05;1.90;;;9.20;93.00;;;;;;5111673;28;20089;-74
2021/05/28 03:08:39;;;;;;;3.05;1.52;;;9.20;92.90;;;;;;5112438;28;20106;-74
2021/05/28 03:11:06;;;;;;;4.43;1.83;;;9.20;92.90;;;;;;5060490;28;20036;-73
2021/05/28 03:13:34;;;;;;;2.83;1.50;;;9.20;92.90;;;;;;5111433;28;20453;-74
2021/05/28 03:16:01;;;;;;;4.38;1.88;;;9.20;92.90;;;;;;5092898;28;20474;-73
2021/05/28 03:18:50;;;;;;;2.95;1.60;;;9.20;92.90;;;;;;5091343;28;20518;-74
2021/05/28 03:23:49;;;;;;;2.28;1.23;;;9.20;93.00;;;;;;5111426;28;20044;-74
2021/05/28 03:26:16;;;;;;;3.17;1.60;;;9.20;93.20;;;;;;5112197;28;20028;-74
2021/05/28 03:28:44;;;;;;;2.55;1.13;;;9.20;93.00;;;;;;5059497;28;20050;-74
2021/05/28 03:31:11;;;;;;;4.35;1.80;;;9.20;93.00;;;;;;5090172;28;20086;-74
2021/05/28 03:33:38;;;;;;;3.22;1.42;;;9.30;93.00;;;;;;5109309;28;21806;-74
2021/05/28 03:36:06;;;;;;;3.00;1.08;;;9.30;92.90;;;;;;5092903;28;20096;-75
2021/05/28 03:38:34;;;;;;;3.15;1.42;;;9.30;92.90;;;;;;5110596;28;20109;-74
2021/05/28 03:41:02;;;;;;;3.60;1.48;;;9.30;92.90;;;;;;5088504;28;20044;-74
2021/05/28 03:43:29;;;;;;;4.70;1.52;;;9.30;92.90;;;;;;5109897;28;20043;-74
2021/05/28 03:45:56;;;;;;;2.65;1.17;;;9.20;92.90;;;;;;5110992;28;20085;-74
2021/05/28 03:48:23;;;;;;;2.97;1.45;;;9.20;93.20;;;;;;5074655;28;20047;-74
2021/05/28 03:50:51;;;;;;;2.78;1.30;;;9.20;92.90;;;;;;5111782;28;20526;-74
2021/05/28 03:53:18;;;;;;;3.17;1.45;;;9.20;93.00;;;;;;5074380;28;20044;-74
2021/05/28 03:55:45;;;;;;;4.22;1.67;;;9.20;93.00;;;;;;5084580;28;20047;-74
2021/05/28 03:58:12;;;;;;;3.83;1.65;;;9.30;93.00;;;;;;5096120;28;20120;-75
2021/05/28 04:00:39;;;;;;;2.80;1.40;;;9.30;93.00;;;;;;5109453;28;20964;-74
2021/05/28 04:03:07;;;;;;;2.63;1.40;;;9.30;93.00;;;;;;5090410;28;20433;-74
2021/05/28 04:05:34;;;;;;;3.22;1.60;;;9.30;93.00;;;;;;5112235;28;20032;-74
2021/05/28 04:08:01;;;;;;;4.03;1.67;;;9.40;92.90;;;;;;5115291;28;20036;-74
2021/05/28 04:10:28;;;;;;;4.88;1.65;;;9.40;92.90;;;;;;5078331;28;20093;-74
2021/05/28 04:12:55;;;;;;;4.35;1.40;;;9.40;92.90;;;;;;5095783;28;20043;-74
2021/05/28 04:15:22;;;;;;;4.60;2.22;;;9.50;93.00;;;;;;5114496;28;20052;-74
2021/05/28 04:17:49;;;;;;;5.28;1.90;;;9.50;92.90;;;;;;5113527;28;20089;-74
2021/05/28 04:20:16;;;;;;;5.18;2.22;;;9.50;92.90;;;;;;5079348;28;20490;-74
2021/05/28 04:22:44;;;;;;;4.97;2.15;;;9.60;92.90;;;;;;5112967;28;20112;-74
2021/05/28 04:25:12;;;;;;;3.63;1.60;;;9.60;92.90;;;;;;5094735;28;20101;-74
2021/05/28 04:27:39;;;;;;;3.47;1.80;;;9.60;92.90;;;;;;5096588;28;20107;-74
2021/05/28 04:30:06;;;;;;;4.53;1.88;;;9.60;92.90;;;;;;5059448;28;20044;-74
2021/05/28 04:32:33;;;;;;;3.97;1.73;;;9.60;92.80;;;;;;5091712;28;20560;-74
2021/05/28 04:35:02;;;;;;;3.92;2.03;;;9.60;92.80;;;;;;5113742;28;20062;-73
2021/05/28 04:37:29;;;;;;;4.57;2.25;;;9.70;92.80;;;;;;5113494;28;20047;-74
2021/05/28 04:39:56;;;;;;;3.47;1.75;;;9.70;92.80;;;;;;5056787;28;20098;-74
2021/05/28 04:42:23;;;;;;;5.50;2.42;;;9.70;92.80;;;;;;5114690;28;20101;-74
2021/05/28 04:44:52;;;;;;;3.85;1.95;;;9.70;92.80;;;;;;5096079;28;20074;-74
2021/05/28 04:47:19;;;;;;;4.47;2.10;;;9.80;92.80;;;;;;5113781;28;20059;-74
2021/05/28 04:49:46;;;;;;;5.82;2.30;;;9.80;92.70;;;;;;5115055;28;20541;-74
2021/05/28 04:52:13;;;;;;;4.90;2.00;;;9.80;92.80;;;;;;5096067;28;20070;-74
2021/05/28 04:54:40;;;;;;;4.28;1.90;;;9.80;92.80;;;;;;5095071;28;20089;-74
2021/05/28 04:57:08;;;;;;;4.35;2.30;;;9.80;92.70;;;;;;5109391;28;20558;-73
2021/05/28 04:59:35;;;;;;;5.32;2.20;;;9.80;92.70;;;;;;5092405;28;20093;-74
2021/05/28 05:02:02;;;;;;;4.18;2.00;;;9.80;92.80;;;;;;5089622;28;20074;-74
2021/05/28 05:04:29;;;;;;;5.00;1.90;;;9.80;92.70;;;;;;5078927;28;20501;-74
2021/05/28 05:06:56;;;;;;;3.42;1.52;;;9.80;92.70;;;;;;5073123;28;20457;-74
2021/05/28 05:09:22;;;;;;;4.85;1.85;;;9.90;92.70;;;;;;5089736;28;20086;-74
2021/05/28 05:11:50;;;;;;;4.35;1.90;;;9.90;92.60;;;;;;5090562;28;20098;-74
2021/05/28 05:14:17;;;;;;;4.05;2.13;;;9.90;92.70;;;;;;5106708;28;20040;-74
2021/05/28 05:16:44;;;;;;;5.45;2.08;;;9.90;92.60;;;;;;5097986;28;20127;-74
2021/05/28 05:19:12;;;;;;;4.88;3.20;;;9.90;92.60;;;;;;5112937;28;20039;-74
2021/05/28 05:21:40;;;;;;;5.47;3.20;;;9.80;92.50;;;;;;5095057;28;20044;-74
2021/05/28 05:24:08;;;;;;;4.25;2.53;;;9.80;92.60;;;;;;5092429;28;20106;-75
2021/05/28 05:26:35;;;;;;;4.07;2.35;;;9.80;92.60;;;;;;5093513;28;20093;-74
2021/05/28 05:29:03;;;;;;;4.70;2.25;;;9.80;92.60;;;;;;5108297;28;20039;-74
2021/05/28 05:31:31;;;;;;;4.18;1.88;;;9.70;92.50;;;;;;5105533;28;20044;-74
2021/05/28 05:33:58;;;;;;;4.07;2.10;;;9.80;92.60;;;;;;5108701;28;20048;-74
2021/05/28 05:36:25;;;;;;;4.18;1.67;;;9.80;92.60;;;;;;5088399;28;20051;-74
2021/05/28 05:38:53;;;;;;;6.63;3.05;;;9.90;92.60;;;;;;5084017;28;20052;-74
2021/05/28 05:41:19;;;;;;;5.88;3.20;;;9.90;92.50;;;;;;5093661;28;20044;-75
2021/05/28 05:43:46;;;;;;;6.72;3.40;;;9.90;92.50;;;;;;5075615;28;20043;-74
2021/05/28 05:46:14;;;;;;;6.90;3.50;;;9.90;92.50;;;;;;5075520;28;20070;-74
2021/05/28 05:48:41;;;;;;;6.32;2.42;;;9.90;92.50;;;;;;5093670;28;20063;-74
2021/05/28 05:51:08;;;;;;;4.43;2.25;;;9.90;92.50;;;;;;5070935;28;20039;-74
2021/05/28 05:53:35;;;;;;;5.22;2.53;;;10.00;92.50;;;;;;5064929;28;20101;-74
2021/05/28 05:56:03;;;;;;;5.43;2.65;;;10.00;92.50;;;;;;5073480;28;20044;-74
2021/05/28 05:58:30;;;;;;;4.18;1.83;;;10.00;92.50;;;;;;5072225;28;20101;-74
2021/05/28 06:00:57;;;;;;;3.70;1.98;;;10.10;92.50;;;;;;5074866;28;20093;-74
2021/05/28 06:03:24;;;;;;;3.53;1.85;;;10.20;92.40;;;;;;5092870;28;20058;-74
2021/05/28 06:05:51;;;;;;;5.60;3.10;;;10.30;92.40;;;;;;5071663;28;20051;-74
2021/05/28 06:08:19;;;;;;;5.40;2.45;;;10.30;92.30;;;;;;5109050;28;20047;-74
2021/05/28 06:10:46;;;;;;;3.83;2.08;;;10.30;92.30;;;;;;5075277;28;20051;-74
2021/05/28 06:13:13;;;;;;;4.55;2.25;;;10.40;92.30;;;;;;5093879;28;20036;-74
2021/05/28 06:15:40;;;;;;;3.85;2.00;;;10.40;92.30;;;;;;5073509;28;20051;-75
2021/05/28 06:18:07;;;;;;;3.55;1.88;;;10.60;92.30;;;;;;5093709;28;20043;-74
2021/05/28 06:20:34;;;;;;;3.47;1.67;;;10.80;92.20;;;;;;5089947;28;20130;-75
2021/05/28 06:23:01;;;;;;;3.50;1.75;;;10.80;92.10;;;;;;5089233;28;20040;-74
2021/05/28 06:25:29;;;;;;;3.97;2.22;;;10.90;92.00;;;;;;5108295;28;20040;-75
2021/05/28 06:27:56;;;;;;;3.55;1.83;;;10.90;92.00;;;;;;5091943;28;20564;-75
2021/05/28 06:30:23;;;;;;;4.55;1.95;;;10.90;91.90;;;;;;5073157;28;20400;-74
2021/05/28 06:32:50;;;;;;;4.80;2.38;;;10.90;91.90;;;;;;5089077;28;20044;-73
2021/05/28 06:35:17;;;;;;;4.70;2.08;;;10.90;91.90;;;;;;5093768;28;20115;-73
2021/05/28 06:37:44;;;;;;;3.85;1.60;;;10.90;91.90;;;;;;5089993;28;20040;-74
2021/05/28 06:40:12;;;;;;;2.83;1.60;;;11.00;91.90;;;;;;5070238;28;20703;-74
2021/05/28 06:42:39;;;;;;;2.85;1.45;;;11.20;91.90;;;;;;5051720;28;20055;-75
2021/05/28 06:45:07;;;;;;;3.97;2.25;;;11.30;91.70;;;;;;5070131;28;20046;-74
2021/05/28 06:47:34;;;;;;;4.90;2.70;;;11.40;91.50;;;;;;5088434;28;20067;-74
2021/05/28 06:50:02;;;;;;;5.38;3.15;;;11.30;91.40;;;;;;5069217;28;20032;-74
2021/05/28 06:52:29;;;;;;;4.95;2.30;;;11.30;91.40;;;;;;5090423;28;20090;-75
2021/05/28 06:54:56;;;;;;;5.10;2.97;;;11.20;91.50;;;;;;5089584;28;20517;-74
2021/05/28 06:57:24;;;;;;;4.43;2.58;;;11.10;91.50;;;;;;5068234;28;20062;-75
2021/05/28 06:59:52;;;;;;;4.30;2.17;;;11.10;91.60;;;;;;5103164;28;20040;-74
2021/05/28 07:02:18;;;;;;;4.45;2.53;;;11.20;91.70;;;;;;5093884;28;20116;-74
2021/05/28 07:04:45;;;;;;;3.67;1.80;;;11.30;91.70;;;;;;5088934;28;20072;-74
2021/05/28 07:07:13;;;;;;;4.10;2.10;;;11.30;91.70;;;;;;5102087;28;20071;-74
2021/05/28 07:09:41;;;;;;;3.20;1.45;;;11.40;91.60;;;;;;5078723;28;20040;-74
2021/05/28 07:12:09;;;;;;;2.55;1.40;;;11.50;91.60;;;;;;5105786;28;20048;-71
2021/05/28 07:14:37;;;;;;;3.03;1.40;;;11.70;91.60;;;;;;5086029;28;20431;-72
2021/05/28 07:17:05;;;;;;;3.63;1.70;;;11.80;91.50;;;;;;5089274;28;20037;-71
2021/05/28 07:19:32;;;;;;;2.90;1.30;;;11.90;91.40;;;;;;5096365;28;20032;-72
2021/05/28 07:21:59;;;;;;;2.40;1.40;;;12.00;91.40;;;;;;5092827;28;20090;-71
2021/05/28 07:24:27;;;;;;;2.58;1.70;;;12.20;91.30;;;;;;5093435;28;20067;-71
2021/05/28 07:26:54;;;;;;;3.58;2.00;;;12.30;91.20;;;;;;5084788;28;20040;-71
2021/05/28 07:29:21;;;;;;;3.33;1.55;;;12.40;91.20;;;;;;5091781;28;20440;-71
2021/05/28 07:31:49;;;;;;;4.32;2.08;;;12.50;91.10;;;;;;5096599;28;20036;-71
2021/05/28 07:34:16;;;;;;;5.32;2.05;;;12.60;91.10;;;;;;5068159;28;20572;-71
2021/05/28 07:36:43;;;;;;;3.50;1.80;;;12.70;91.00;;;;;;5077514;28;20122;-72
2021/05/28 07:39:10;;;;;;;3.92;2.00;;;12.80;91.00;;;;;;5101895;28;20044;-73
2021/05/28 07:41:37;;;;;;;6.20;2.22;;;12.90;90.90;;;;;;5115496;28;20121;-76
2021/05/28 07:44:06;;;;;;;4.70;2.63;;;13.00;90.80;;;;;;5064209;28;20044;-71
2021/05/28 07:46:39;;;;;;;4.43;2.55;;;13.00;90.70;;;;;;5097018;28;20040;-72
2021/05/28 07:49:07;;;;;;;3.95;2.63;;;13.00;90.70;;;;;;5095824;28;20122;-73
2021/05/28 07:51:34;;;;;;;4.25;2.60;;;13.10;90.70;;;;;;5091157;28;20156;-73
2021/05/28 07:54:01;;;;;;;4.10;2.30;;;13.20;90.70;;;;;;5115471;28;20036;-72
2021/05/28 07:56:28;;;;;;;5.40;2.38;;;13.40;90.70;;;;;;5097256;28;20039;-73
2021/05/28 07:58:55;;;;;;;4.65;2.72;;;13.40;90.70;;;;;;5097234;28;20444;-72
2021/05/28 08:01:22;;;;;;;7.88;2.80;;;13.60;90.60;;;;;;5088568;28;20071;-72
2021/05/28 08:03:49;;;;;;;4.65;2.83;;;13.70;90.60;;;;;;5079794;28;20040;-73
2021/05/28 08:06:16;;;;;;;4.50;2.90;;;13.80;90.50;;;;;;5096783;28;20104;-71
2021/05/28 08:08:43;;;;;;;4.40;2.80;;;13.80;90.50;;;;;;5080234;28;20479;-73
2021/05/28 08:11:10;;;;;;;5.88;2.95;;;13.90;90.40;;;;;;5097192;28;20059;-73
2021/05/28 08:13:37;;;;;;;4.43;2.90;;;14.00;90.40;;;;;;5078708;28;20036;-73
2021/05/28 08:16:04;;;;;;;4.88;2.88;;;14.10;90.40;;;;;;5077008;28;20048;-73
2021/05/28 08:18:31;;;;;;;4.50;2.63;;;14.20;90.30;;;;;;5088729;28;20047;-72
2021/05/28 08:20:59;;;;;;;4.18;2.45;;;14.30;90.10;;;;;;5104509;28;20038;-72
2021/05/28 08:23:26;;;;;;;7.85;3.55;;;14.30;90.20;;;;;;5112984;28;20035;-73
2021/05/28 08:25:53;;;;;;;5.65;3.70;;;14.40;90.10;;;;;;5105455;28;20043;-72
2021/05/28 08:28:20;;;;;;;6.22;4.20;;;14.40;89.60;;;;;;5080597;28;20470;-72
2021/05/28 08:30:47;;;;;;;5.53;3.25;;;14.40;89.10;;;;;;5080432;28;20036;-73
2021/05/28 08:33:15;;;;;;;5.03;3.30;;;14.40;89.40;;;;;;5087374;28;20108;-72
2021/05/28 08:35:43;;;;;;;4.93;2.65;;;14.50;89.60;;;;;;5090635;28;20039;-72
2021/05/28 08:38:11;;;;;;;4.38;2.80;;;14.60;89.20;;;;;;5108270;28;20505;-72
2021/05/28 08:40:39;;;;;;;3.38;1.95;;;14.70;89.30;;;;;;5096443;28;20056;-72
2021/05/28 08:43:07;;;;;;;3.72;2.50;;;14.80;89.30;;;;;;5114085;28;20036;-72
2021/05/28 08:45:40;;;;;;;6.82;3.80;;;15.00;89.20;;;;;;5120540;27;20031;-71
2021/05/28 08:48:11;;;;;;;5.75;3.70;;;15.00;88.50;;;;;;5104589;28;20063;-71
2021/05/28 08:50:39;;;;;;;5.60;3.10;;;15.00;88.60;;;;;;5091611;28;20044;-72
2021/05/28 08:53:09;;;;;;;5.03;3.15;;;15.10;88.50;;;;;;5085796;28;20501;-71
2021/05/28 08:55:37;;;;;;;5.68;3.60;;;15.10;88.60;;;;;;5105284;28;20037;-72
2021/05/28 08:58:06;;;;;;;7.07;4.28;;;15.20;88.10;;;;;;5097147;28;20039;-72
2021/05/28 09:00:36;;;;;;;7.90;5.68;;;15.30;88.00;;;;;;5094605;28;20069;-72
2021/05/28 09:03:23;;;;;;;7.93;5.25;;;15.20;86.80;;;;;;5105371;28;20039;-71
2021/05/28 09:05:59;;;;;;;10.88;5.32;;;15.20;86.10;;;;;;5108345;28;20032;-71
2021/05/28 09:08:28;;;;;;;7.45;4.05;;;15.20;86.20;;;;;;5111291;28;20441;-72
2021/05/28 09:11:15;;;;;;;6.78;4.15;;;15.30;86.60;;;;;;5081528;28;20085;-72
2021/05/28 09:14:00;;;;;;;5.38;3.42;;;15.50;86.90;;;;;;5087242;28;20051;-72
2021/05/28 09:16:28;;;;;;;4.82;3.10;;;15.70;86.50;;;;;;5103098;28;20044;-72
2021/05/28 09:19:00;;;;;;;5.38;3.17;;;15.80;86.70;;;;;;5109163;28;20437;-72
2021/05/28 09:21:35;;;;;;;5.40;3.38;;;16.00;86.80;;;;;;5095105;28;20489;-72
2021/05/28 09:24:24;;;;;;;4.60;2.83;;;16.10;86.80;;;;;;5083508;28;20044;-72
2021/05/28 09:26:52;;;;;;;5.35;3.35;;;16.30;86.90;;;;;;5107612;28;20040;-73
2021/05/28 09:29:19;;;;;;;7.55;3.60;;;16.40;86.50;;;;;;5078514;28;20032;-72
2021/05/28 09:31:46;;;;;;;4.85;3.45;;;16.50;86.50;;;;;;5113331;28;20486;-72
2021/05/28 09:34:13;;;;;;;6.30;3.85;;;16.70;86.60;;;;;;5100169;28;20406;-71
2021/05/28 09:36:40;;;;;;;5.93;3.97;;;16.70;85.90;;;;;;5093699;28;20046;-71
2021/05/28 09:39:13;;;;;;;6.60;3.55;;;16.80;85.00;;;;;;5091492;28;20512;-72
2021/05/28 09:41:57;;;;;;;5.60;3.65;;;16.80;84.40;;;;;;5095714;28;20074;-70
2021/05/28 09:44:29;;;;;;;6.22;3.17;;;16.70;82.90;;;;;;5072827;28;20395;-71
2021/05/28 09:47:08;;;;;;;3.72;2.15;;;16.70;83.40;;;;;;5092950;28;20047;-71
2021/05/28 09:49:37;;;;;;;3.67;2.47;;;16.80;83.50;;;;;;5107149;28;20129;-72
2021/05/28 09:52:08;;;;;;;3.45;1.77;;;16.90;83.70;;;;;;5106477;28;20036;-72
2021/05/28 09:54:36;;;;;;;3.08;1.70;;;17.00;83.60;;;;;;5107856;28;20055;-71
2021/05/28 09:57:03;;;;;;;4.55;1.90;;;17.10;83.50;;;;;;5103515;28;20044;-72
2021/05/28 09:59:45;;;;;;;3.13;1.35;;;17.20;81.70;;;;;;5110954;28;20063;-72
2021/05/28 10:02:24;;;;;;;3.35;1.45;;;17.30;81.80;;;;;;5100332;28;20066;-72
2021/05/28 10:04:53;;;;;;;3.10;1.30;;;17.40;82.10;;;;;;5089083;28;20039;-74
2021/05/28 10:07:20;;;;;;;2.45;1.13;;;17.40;82.10;;;;;;5075296;28;20036;-76
2021/05/28 10:09:47;;;;;;;2.65;1.35;;;17.50;81.80;;;;;;5085751;28;20497;-73
2021/05/28 10:12:15;;;;;;;3.17;1.50;;;17.60;82.30;;;;;;5078529;28;20036;-77
2021/05/28 10:14:42;;;;;;;2.85;1.90;;;17.80;81.40;;;;;;5107619;28;20043;-76
2021/05/28 10:17:09;;;;;;;4.63;1.38;;;17.90;81.40;;;;;;5072243;28;20457;-75
2021/05/28 10:19:37;;;;;;;3.65;1.70;;;18.00;81.00;;;;;;5088038;28;20047;-76
2021/05/28 10:22:04;;;;;;;3.30;1.48;;;18.00;80.30;;;;;;5075021;28;20043;-74
2021/05/28 10:24:31;;;;;;;2.90;1.27;;;17.90;79.80;;;;;;5086918;28;20150;-75
2021/05/28 10:26:58;;;;;;;2.35;1.33;;;17.90;80.00;;;;;;5077679;28;20445;-74
2021/05/28 10:29:26;;;;;;;2.20;1.30;;;18.00;79.40;;;;;;5086729;28;20101;-74
2021/05/28 10:32:27;;;;;;;2.45;1.17;;;18.10;79.40;;;;;;5082627;28;20040;-75
2021/05/28 10:35:13;;;;;;;2.78;1.33;;;18.20;78.70;;;;;;5083294;28;20525;-75
2021/05/28 10:37:42;;;;;;;2.63;1.00;;;18.30;78.80;;;;;;5103695;28;20039;-75
2021/05/28 10:40:30;;;;;;;2.47;0.80;;;18.40;78.90;;;;;;5055265;28;20055;-75
2021/05/28 10:43:00;;;;;;;1.33;0.75;;;18.60;78.30;;;;;;5088175;28;20062;-75
2021/05/28 10:45:49;;;;;;;4.00;1.10;;;18.60;78.40;;;;;;5088444;28;20036;-77
2021/05/28 10:48:36;;;;;;;2.85;0.82;;;18.70;77.70;;;;;;5088827;28;20070;-74
2021/05/28 10:51:04;;;;;;;2.33;0.90;;;18.80;77.60;;;;;;5087604;28;20522;-74
2021/05/28 10:53:32;;;;;;;1.55;0.77;;;18.80;77.70;;;;;;5103866;28;20384;-74
2021/05/28 10:56:00;;;;;;;1.85;0.85;;;18.80;77.10;;;;;;5086758;28;20490;-76
2021/05/28 10:58:46;;;;;;;1.75;0.90;;;18.90;77.20;;;;;;5102230;28;20031;-72
2021/05/28 11:01:34;;;;;;;2.20;0.98;;;19.10;76.50;;;;;;5091240;28;20048;-72
2021/05/28 11:04:10;;;;;;;2.85;1.15;;;19.10;76.20;;;;;;5090344;28;20103;-71
2021/05/28 11:06:55;;;;;;;2.00;1.00;;;19.20;75.50;;;;;;5092637;28;20040;-71
2021/05/28 11:09:43;;;;;;;3.35;0.93;;;19.20;75.10;;;;;;5085326;28;20578;-71
2021/05/28 11:12:13;;;;;;;2.08;0.80;;;19.30;75.10;;;;;;5075740;28;20101;-71
2021/05/28 11:14:57;;;;;;;2.42;0.73;;;19.30;75.10;;;;;;5111411;28;20031;-72
2021/05/28 11:17:24;;;;;;;2.50;0.90;;;19.40;74.40;;;;;;5106176;28;20047;-73
2021/05/28 11:19:55;;;;;;;1.20;0.80;;;19.50;74.50;;;;;;5077848;28;20484;-73
2021/05/28 11:22:31;;;;;;;1.85;0.70;;;19.50;74.10;;;;;;5083459;28;20830;-71
2021/05/28 11:25:03;;;;;;;1.67;0.70;;;19.60;73.80;;;;;;5083860;28;20051;-73
2021/05/28 11:27:33;;;;;;;1.80;0.73;;;19.70;73.60;;;;;;5085963;28;20044;-70
2021/05/28 11:30:03;;;;;;;1.40;0.60;;;19.80;73.40;;;;;;5109240;28;20118;-70
2021/05/28 11:32:45;;;;;;;1.27;0.55;;;19.80;73.00;;;;;;5087416;28;20410;-71
2021/05/28 11:35:36;;;;;;;1.52;0.57;;;19.90;72.70;;;;;;5088733;28;20403;-69
2021/05/28 11:38:08;;;;;;;1.10;0.55;;;19.90;72.10;;;;;;5105187;28;20044;-69
2021/05/28 11:40:36;;;;;;;1.30;0.68;;;20.00;71.50;;;;;;5105688;28;20047;-69
2021/05/28 11:43:18;;;;;;;1.15;0.55;;;20.00;71.20;;;;;;5092929;28;20043;-69
2021/05/28 11:45:50;;;;;;;1.10;0.55;;;20.20;71.30;;;;;;5111023;28;20031;-70
2021/05/28 11:48:18;;;;;;;1.60;0.50;;;20.40;70.50;;;;;;5082350;28;20040;-69
2021/05/28 11:50:53;;;;;;;1.80;0.50;;;20.60;69.90;;;;;;5101057;28;20122;-69
2021/05/28 11:53:21;;;;;;;1.55;0.63;;;20.80;69.10;;;;;;5108270;28;20035;-71
2021/05/28 11:55:53;;;;;;;0.77;0.50;;;21.00;68.20;;;;;;5111620;28;20068;-71
2021/05/28 11:58:22;;;;;;;1.20;0.60;;;21.20;67.40;;;;;;5111765;28;20058;-71
2021/05/28 12:00:51;;;;;;;1.90;0.60;;;21.50;66.80;;;;;;5110535;28;20047;-71
2021/05/28 12:03:20;;;;;;;1.30;0.73;;;21.70;66.20;;;;;;5072124;28;20446;-70
2021/05/28 12:05:49;;;;;;;1.67;0.50;;;21.80;62.20;;;;;;5091806;28;20031;-70
2021/05/28 12:08:20;;;;;;;1.75;0.70;;;21.90;62.70;;;;;;5093856;28;20031;-69
2021/05/28 12:10:54;;;;;;;1.80;0.75;;;22.30;62.50;;;;;;5091610;28;20059;-70
2021/05/28 12:13:27;;;;;;;1.15;0.70;;;22.60;61.40;;;;;;5084192;28;20032;-69
2021/05/28 12:15:55;;;;;;;;;;;22.80;61.20;;;;;;5107996;28;20104;-70
2021/05/28 12:18:27;;;;;;;1.25;0.40;;;23.00;60.90;;;;;;5110360;28;19927;-70
2021/05/28 12:20:56;;;;;;;1.50;0.60;;;23.30;61.00;;;;;;5088053;28;20040;-70
2021/05/28 12:23:30;;;;;;;0.90;0.50;;;23.70;60.20;;;;;;5111247;28;20035;-71
2021/05/28 12:26:05;;;;;;;1.88;0.57;;;24.00;59.60;;;;;;5108621;28;20375;-71
2021/05/28 12:28:38;;;;;;;0.98;0.55;;;24.20;58.60;;;;;;5112374;28;20043;-72
2021/05/28 12:31:11;;;;;;;0.85;0.45;;;24.40;57.70;;;;;;5093686;28;20036;-72
2021/05/28 12:33:45;;;;;;;0.95;0.40;;;24.60;57.80;;;;;;5112906;28;20035;-72
2021/05/28 12:36:14;;;;;;;0.85;0.40;;;24.90;57.50;;;;;;5094514;28;20043;-71
2021/05/28 12:38:46;;;;;;;0.90;0.40;;;25.30;57.20;;;;;;5093563;28;20064;-71
2021/05/28 12:41:19;;;;;;;0.95;0.50;;;25.60;56.70;;;;;;5091630;28;20484;-70
2021/05/28 12:43:48;;;;;;;0.90;0.43;;;25.90;55.20;;;;;;5097007;28;20044;-70
2021/05/28 12:46:19;;;;;;;0.52;0.40;;;26.00;55.30;;;;;;5101083;28;20035;-68
2021/05/28 12:48:53;;;;;;;1.00;0.50;;;26.20;54.70;;;;;;5110330;28;20027;-67
2021/05/28 12:51:39;;;;;;;0.95;0.40;;;26.30;54.30;;;;;;5113105;28;20124;-68
2021/05/28 12:54:24;;;;;;;1.13;0.47;;;26.60;54.10;;;;;;5111253;28;20108;-68
2021/05/28 12:56:53;;;;;;;0.75;0.40;;;26.80;53.50;;;;;;5094128;28;20043;-70
2021/05/28 12:59:31;;;;;;;2.00;0.30;;;27.00;52.80;;;;;;5107396;28;20413;-69
2021/05/28 13:02:10;;;;;;;1.30;0.40;;;27.20;52.10;;;;;;5089569;28;20483;-71
2021/05/28 13:04:52;;;;;;;0.70;0.40;;;27.20;52.10;;;;;;5113330;28;20089;-69